sensor_id;sensor_type;location;lat;lon;timestamp;pressure;altitude;pressure_sealevel;temperature;humidity
46408;BME280;32110;45.724;21.276;2024-03-08T02:46:30;100876.59;;;5.94;nan
46408;BME280;32110;45.724;21.276;2024-03-08T12:14:33;100946.56;;;8.89;nan
46408;BME280;32110;45.724;21.276;2024-03-08T18:20:04;100906.13;;;8.08;nan
46408;BME280;32110;45.724;21.276;2024-03-08T18:42:09;100895.19;;;7.98;nan
46408;BME280;32110;45.724;21.276;2024-03-08T21:45:21;100892.56;;;4.79;nan
46408;BME280;32110;45.724;21.276;2024-03-08T21:47:48;100885.69;;;5.01;nan
46408;BME280;32110;45.724;21.276;2024-03-08T21:50:19;100898.09;;;4.99;nan
46408;BME280;32110;45.724;21.276;2024-03-08T21:52:45;100871.28;;;4.67;nan
46408;BME280;32110;45.724;21.276;2024-03-08T21:55:11;100890.97;;;4.70;nan
46408;BME280;32110;45.724;21.276;2024-03-08T21:57:43;100900.41;;;4.71;nan
46408;BME280;32110;45.724;21.276;2024-03-08T22:00:09;100878.69;;;4.56;nan
46408;BME280;32110;45.724;21.276;2024-03-08T22:02:39;100890.72;;;4.57;nan
46408;BME280;32110;45.724;21.276;2024-03-08T22:05:05;100886.88;;;4.53;nan
46408;BME280;32110;45.724;21.276;2024-03-08T22:07:44;100881.97;;;4.50;nan
46408;BME280;32110;45.724;21.276;2024-03-08T22:10:10;100884.00;;;4.39;nan
46408;BME280;32110;45.724;21.276;2024-03-08T22:12:35;100876.84;;;4.33;nan
46408;BME280;32110;45.724;21.276;2024-03-08T22:15:04;100889.56;;;4.36;nan
46408;BME280;32110;45.724;21.276;2024-03-08T22:19:59;100971.63;;;4.80;nan
46408;BME280;32110;45.724;21.276;2024-03-08T22:22:29;100868.16;;;4.18;nan
46408;BME280;32110;45.724;21.276;2024-03-08T22:24:54;100886.69;;;4.23;nan
46408;BME280;32110;45.724;21.276;2024-03-08T22:27:22;100878.28;;;4.13;nan
46408;BME280;32110;45.724;21.276;2024-03-08T22:29:48;100885.75;;;4.16;nan
46408;BME280;32110;45.724;21.276;2024-03-08T22:32:15;100854.25;;;3.94;nan
46408;BME280;32110;45.724;21.276;2024-03-08T22:34:40;100874.59;;;4.07;nan
46408;BME280;32110;45.724;21.276;2024-03-08T22:37:06;100885.31;;;4.04;nan
46408;BME280;32110;45.724;21.276;2024-03-08T22:39:37;100891.97;;;4.07;nan
46408;BME280;32110;45.724;21.276;2024-03-08T22:42:03;100880.31;;;4.02;nan
46408;BME280;32110;45.724;21.276;2024-03-08T22:44:29;100888.91;;;4.03;nan
46408;BME280;32110;45.724;21.276;2024-03-08T22:46:58;100888.91;;;4.03;nan
46408;BME280;32110;45.724;21.276;2024-03-08T22:49:23;100893.66;;;3.99;nan
46408;BME280;32110;45.724;21.276;2024-03-08T22:51:51;100882.91;;;3.94;nan
46408;BME280;32110;45.724;21.276;2024-03-08T22:54:16;100879.66;;;3.92;nan
46408;BME280;32110;45.724;21.276;2024-03-08T22:56:43;100868.66;;;3.82;nan
46408;BME280;32110;45.724;21.276;2024-03-08T22:59:08;100855.53;;;3.67;nan
46408;BME280;32110;45.724;21.276;2024-03-08T23:01:34;100891.94;;;3.83;nan
46408;BME280;32110;45.724;21.276;2024-03-08T23:04:00;100849.56;;;3.50;nan
46408;BME280;32110;45.724;21.276;2024-03-08T23:06:26;100870.66;;;3.63;nan
46408;BME280;32110;45.724;21.276;2024-03-08T23:08:51;100891.34;;;3.65;nan
46408;BME280;32110;45.724;21.276;2024-03-08T23:11:18;100888.75;;;3.57;nan
46408;BME280;32110;45.724;21.276;2024-03-08T23:13:43;100885.81;;;3.52;nan
46408;BME280;32110;45.724;21.276;2024-03-08T23:16:13;100893.47;;;3.53;nan
46408;BME280;32110;45.724;21.276;2024-03-08T23:18:39;100889.25;;;3.52;nan
46408;BME280;32110;45.724;21.276;2024-03-08T23:21:08;100902.09;;;3.54;nan
46408;BME280;32110;45.724;21.276;2024-03-08T23:23:33;100884.06;;;3.44;nan
46408;BME280;32110;45.724;21.276;2024-03-08T23:26:01;100894.16;;;3.47;nan
46408;BME280;32110;45.724;21.276;2024-03-08T23:28:26;100889.56;;;3.49;nan
46408;BME280;32110;45.724;21.276;2024-03-08T23:30:54;100883.75;;;3.47;nan
46408;BME280;32110;45.724;21.276;2024-03-08T23:33:20;100863.25;;;3.28;nan
46408;BME280;32110;45.724;21.276;2024-03-08T23:35:47;100888.28;;;3.37;nan
46408;BME280;32110;45.724;21.276;2024-03-08T23:38:12;100859.69;;;3.20;nan
46408;BME280;32110;45.724;21.276;2024-03-08T23:40:39;100870.94;;;3.13;nan
